sept
29

MOTOCROSS DES NATIONS – LOMMEL : SUIVEZ LES QUALIFICATIONS EN LIVE TIMING


Horaires samedi (heure française..) :

Free Practice MX1 10:00;
Free practice MX2 11:00;
Free Practice Open 12:00;
Qualifying Heat MX1 14:30;
Qualifying Heat MX2 15:30;
Qualifying Heat Open 16:30

Free Practice MX1 – Classification
Pos Nr Rider Nat. Fed. Bike Bestlaptime in lap Diff. First Diff. Prev. Tot. Laps Speed

1 46 Cairoli, Antonio ITA FMI KTM 1:41.592 4 0:00.000 0:00.000 7 58.469
2 43 Bobryshev, Evgeny RUS MFR Honda 1:44.601 11 0:03.009 0:03.009 15 56.787
3 1 Dungey, Ryan USA AMA KTM 1:45.028 9 0:03.436 0:00.427 18 56.556
4 19 Nagl, Maximilian GER DMSB KTM 1:45.950 5 0:04.358 0:00.922 13 56.064
5 85 Coppins, Joshua NZL MNZ Yamaha 1:46.088 10 0:04.496 0:00.138 15 55.991
6 55 Barr, Martin IRL ACU Kawasaki 1:46.201 10 0:04.609 0:00.113 13 55.932
7 31 Goncalves, Rui POR FMP Honda 1:46.303 7 0:04.711 0:00.102 16 55.878
8 4 Paulin, Gautier FRA MCM Kawasaki 1:47.258 7 0:05.666 0:00.955 9 55.38
9 10 Searle, Tommy GBR ACU Kawasaki 1:47.845 7 0:06.253 0:00.587 16 55.079
10 25 de Reuver, Marc NED KNMV Kawasaki 1:47.975 12 0:06.383 0:00.130 14 55.013
11 34 Tonus, Arnaud SUI FMS Yamaha 1:48.068 8 0:06.476 0:00.093 18 54.965
12 13 Desalle, Clement BEL FMB Suzuki 1:49.148 7 0:07.556 0:01.080 15 54.422
13 7 Bopping, Lawson AUS MA Yamaha 1:49.343 15 0:07.751 0:00.195 18 54.324
14 28 Krestinov, Gert EST EMF Honda 1:49.943 11 0:08.351 0:00.600 16 54.028
15 52 Hansen, Nicolai DEN DMU Suzuki 1:50.005 11 0:08.413 0:00.062 12 53.998
16 40 Neugebauer, Filip CZE DMSB Kawasaki 1:50.299 10 0:08.707 0:00.294 15 53.854
17 49 Söderberg, Ludde FIN SML Honda 1:50.306 12 0:08.714 0:00.007 17 53.85
18 16 van der Westhuizen, Richard RSA MSA Yamaha 1:51.465 3 0:09.873 0:01.159 14 53.29
19 61 Lindstrom, Kim SWE SVEMO Kawasaki 1:51.555 12 0:09.963 0:00.090 16 53.247
20 76 Jarva, Kim Oiva NOR NMF Honda 1:52.569 5 0:10.977 0:01.014 14 52.768
21 67 Irt, Matevz SLO AMZS Suzuki 1:53.035 9 0:11.443 0:00.466 10 52.55
22 64 Ivanovs, Davis LAT LAMSF Kawasaki 1:53.085 6 0:11.493 0:00.050 16 52.527
23 58 Schögler, Marco AUT OeAMTC KTM 1:53.607 12 0:12.015 0:00.522 12 52.286
24 73 Badiali, Carlos VEN FMV Yamaha 1:53.617 7 0:12.025 0:00.010 12 52.281
25 37 Ogata, Makoto JPN MFJ Honda 1:53.757 13 0:12.165 0:00.140 15 52.217
26 22 Cros, Joan ESP RFME Suzuki 1:54.261 13 0:12.669 0:00.504 14 51.986
27 91 Rukstela, Nerijus LTU LMSF Suzuki 1:54.732 6 0:13.140 0:00.471 13 51.773
28 79 Gentil, Gabriel BRA CBM Yamaha 1:57.138 7 0:15.546 0:02.406 14 50.709
29 70 Aponte, Gino PUR FMPR Honda 1:57.596 3 0:16.004 0:00.458 14 50.512
30 97 Kouzis, Panagiotis GRE AMOTOE Honda 1:58.031 2 0:16.439 0:00.435 13 50.326
31 94 Gudbergsson, Viktor ISL MSI Kawasaki 1:58.359 5 0:16.767 0:00.328 17 50.186
32 124 Szoke, Mark HUN MAMS Kawasaki 1:58.976 9 0:17.384 0:00.617 14 49.926
33 100 Boonatee, Kritsada THA FMSCT Honda 2:08.636 4 0:27.044 0:09.660 8 46.177

Free Practice MX2 – Classification
Pos Nr Rider Nat. Fed. Bike Bestlaptime in lap Diff. First Diff. Prev. Tot. Laps Speed

1 71 Osborne, Zachary PUR ACU Yamaha 1:47.390 7 0:00.000 0:00.000 10 55.312
2 20 Roczen, Ken GER DMSB KTM 1:47.691 7 0:00.301 0:00.301 13 55.158
3 26 Coldenhoff, Glenn NED KNMV KTM 1:48.394 9 0:01.004 0:00.703 14 54.8
4 14 van Horebeek, Jeremy BEL FMB KTM 1:48.630 8 0:01.240 0:00.236 9 54.681
5 2 Baggett, Blake USA AMA Kawasaki 1:48.831 12 0:01.441 0:00.201 17 54.58
6 44 Tonkov, Alexander RUS MFR Honda 1:49.600 10 0:02.210 0:00.769 14 54.197
7 5 Musquin, Marvin FRA AMA KTM 1:51.061 5 0:03.671 0:01.461 15 53.484
8 8 Styke, Luke AUS MA Yamaha 1:51.192 9 0:03.802 0:00.131 11 53.421
9 56 Graeme, Irwin IRL ACU Yamaha 1:51.311 9 0:03.921 0:00.119 14 53.364
10 53 Olsen, Stefan Kjer DEN DMU Yamaha 1:51.510 4 0:04.120 0:00.199 16 53.269
11 29 Rätsep, Priit EST EMF KTM 1:51.520 7 0:04.130 0:00.010 11 53.264
12 11 Nicholls, Jake GBR ACU KTM 1:51.615 8 0:04.225 0:00.095 15 53.219
13 77 Heibye, Even NOR NMF KTM 1:51.668 12 0:04.278 0:00.053 17 53.193
14 23 Butron, Jose ESP RFME KTM 1:51.952 4 0:04.562 0:00.284 15 53.058
15 62 Olsson, Karl SWE SVEMO Honda 1:52.929 11 0:05.539 0:00.977 14 52.599
16 65 Justs, Roberts LAT LAMSF Honda 1:53.011 10 0:05.621 0:00.082 15 52.561
17 68 Gajser, Tim SLO AMZS KTM 1:53.911 10 0:06.521 0:00.900 15 52.146
18 47 Lupino, Alessandro ITA FMI Husqvarna 1:54.073 5 0:06.683 0:00.162 6 52.072
19 50 Lehtinen, Teemu FIN SML Kawasaki 1:54.589 6 0:07.199 0:00.516 16 51.837
20 35 Seewer, Jeremy SUI FMS Suzuki 1:54.597 10 0:07.207 0:00.008 15 51.834
21 17 Terreblance, Shannon RSA MSA KTM 1:54.798 6 0:07.408 0:00.201 12 51.743
22 125 Hugyecz, Erik HUN MAMS Yamaha 1:56.444 9 0:09.054 0:01.646 13 51.012
23 32 Alberto, Paulo POR FMP Suzuki 1:56.538 8 0:09.148 0:00.094 15 50.97
24 74 Rodriguez, Hector VEN FMV Yamaha 1:56.698 8 0:09.308 0:00.160 17 50.901
25 86 Lamont, Kayne NZL MNZ Suzuki 1:57.291 10 0:09.901 0:00.593 16 50.643
26 92 Inda, Matas LTU LMSF Kawasaki 1:58.927 8 0:11.537 0:01.636 15 49.947
27 38 Takenaka, Junya JPN MFJ Kawasaki 1:59.683 13 0:12.293 0:00.756 17 49.631
28 59 Neurauter, Lukas AUT OeAMTC KTM 1:59.950 7 0:12.560 0:00.267 12 49.521
29 80 Silva Faria, Rafael BRA CBM KTM 2:01.789 8 0:14.399 0:01.839 13 48.773
30 41 Spicak, Milan CZE ACCR Kawasaki 2:05.697 13 0:18.307 0:03.908 13 47.256
31 95 Birgisson, Ingvi Bjorn ISL MSI KTM 2:06.835 9 0:19.445 0:01.138 10 46.832
32 101 Thangthong, Trakarn THA FMSCT Yamaha 2:07.378 8 0:19.988 0:00.543 12 46.633
33 98 Kotoletas, Dimitris GRE AMOTOE Yamaha 2:07.503 12 0:20.113 0:00.125 15 46.587

Free Practice Open – Classification
Pos Nr Rider Nat. Fed. Bike Bestlaptime in lap Diff. First Diff. Prev. Tot. Laps Speed

1 27 Herlings, Jeffrey NED KNMV KTM 1:44.468 6 0:00.000 0:00.000 11 56.86
2 30 Leok, Tanel EST EMF Suzuki 1:47.803 3 0:03.335 0:03.335 10 55.101
3 15 de Dycker, Ken BEL FMB KTM 1:48.372 6 0:03.904 0:00.569 9 54.811
4 3 Barcia, Justin USA AMA Honda 1:49.234 2 0:04.766 0:00.862 13 54.379
5 12 Anstie, Max GBR AMA Honda 1:50.068 5 0:05.600 0:00.834 11 53.967
6 87 Cooper, Cody NZL MNZ Suzuki 1:50.492 5 0:06.024 0:00.424 13 53.76
7 21 Schiffer, Marcus GER DMSB Suzuki 1:50.951 6 0:06.483 0:00.459 13 53.537
8 9 Waters, Todd AUS MA Suzuki 1:50.959 5 0:06.491 0:00.008 14 53.533
9 6 Boog, Xavier FRA FFM Kawasaki 1:51.988 6 0:07.520 0:01.029 10 53.041
10 48 Guarneri, Davide ITA FMI KTM 1:52.002 6 0:07.534 0:00.014 10 53.035
11 54 Lynggaard, Kasper DEN DMU Kawasaki 1:53.587 5 0:09.119 0:01.585 13 52.295
12 63 Bengtsson, Filip SWE SVEMO KTM 1:54.111 5 0:09.643 0:00.524 13 52.055
13 36 Guillod, Valentin SUI FMS KTM 1:54.522 4 0:10.054 0:00.411 7 51.868
14 33 Correia, Luis POR FMP Yamaha 1:55.302 3 0:10.834 0:00.780 10 51.517
15 93 Bucas, Vytautas LTU LMSF Honda 1:55.466 4 0:10.998 0:00.164 13 51.444
16 66 Freibergs, Lauris LAT LAMSF Honda 1:55.621 3 0:11.153 0:00.155 10 51.375
17 39 Kojima, Yohei JPN MFJ Suzuki 1:56.471 5 0:12.003 0:00.850 12 51
18 18 Bradshaw, Neville RSA MSA Honda 1:57.171 4 0:12.703 0:00.700 11 50.695
19 69 Gercar, Klemen SLO AMZS Honda 1:57.522 6 0:13.054 0:00.351 11 50.544
20 51 Koskela, Niko FIN SML Kawasaki 1:57.583 7 0:13.115 0:00.061 8 50.518
21 126 Nemeth, Kornel HUN MAMS KTM 1:58.188 6 0:13.720 0:00.605 9 50.259
22 45 Mikhaylov, Evgeny RUS MFR Suzuki 1:58.468 7 0:14.000 0:00.280 12 50.14
23 60 Walkner, Matthias AUT OeAMTC KTM 1:58.707 4 0:14.239 0:00.239 10 50.039
24 57 Edmonds, Stuart IRL MCUI TM 1:59.466 4 0:14.998 0:00.759 12 49.721
25 78 Klingsheim, Magne NOR NMF KTM 1:59.843 4 0:15.375 0:00.377 15 49.565
26 42 Michek, Martin CZE ACCR KTM 2:00.473 4 0:16.005 0:00.630 10 49.306
27 72 Chisholm, Kyle PUR AMA Kawasaki 2:00.542 3 0:16.074 0:00.069 9 49.277
28 75 Martin, Humberto VEN FMV Honda 2:00.661 5 0:16.193 0:00.119 10 49.229
29 24 Lozano, Alvaro ESP RFME Yamaha 2:00.838 10 0:16.370 0:00.177 10 49.157
30 81 Müller, Marcal BRA CBM Yamaha 2:03.465 2 0:18.997 0:02.627 10 48.111
31 96 Sveinsson, Solvi Borgar ISL MSI Honda 2:05.418 2 0:20.950 0:01.953 14 47.362
32 102 Romphan, Chaiyan THA FMSCT Yamaha 2:12.467 1 0:27.999 0:07.049 8 44.841
33 99 Lliopoulos, George GRE AMOTOE KTM 2:13.253 5 0:28.785 0:00.786 13 44.577

Qualifying Heat MX1 – Classification
Pos Nr Rider Nat. Fed. Bike Time laps Diff. First Diff. Prev. Bestlaptime in lap Speed

1 46 Cairoli, Antonio ITA FMI KTM 25:24.630 13 0:00.000 0:00.000 1:49.361 1 54.316
2 19 Nagl, Maximilian GER DMSB KTM 25:34.119 13 0:09.489 0:09.489 1:50.609 3 53.703
3 13 Desalle, Clement BEL FMB Suzuki 25:55.290 13 0:30.660 0:21.171 1:52.581 3 52.762
4 4 Paulin, Gautier FRA MCM Kawasaki 26:06.030 13 0:41.400 0:10.740 1:54.491 6 51.882
5 43 Bobryshev, Evgeny RUS MFR Honda 26:10.512 13 0:45.882 0:04.482 1:53.520 3 52.326
6 1 Dungey, Ryan USA AMA KTM 26:22.465 13 0:57.835 0:11.953 1:53.267 3 52.442
7 25 de Reuver, Marc NED KNMV Kawasaki 26:29.873 13 1:05.243 0:07.408 1:52.569 2 52.768
8 31 Goncalves, Rui POR FMP Honda 26:31.092 13 1:06.462 0:01.219 1:55.876 1 51.262
9 85 Coppins, Joshua NZL MNZ Yamaha 26:34.819 13 1:10.189 0:03.727 1:56.343 3 51.056
10 10 Searle, Tommy GBR ACU Kawasaki 27:00.670 13 1:36.040 0:25.851 1:56.306 4 51.072
11 55 Barr, Martin IRL ACU Suzuki 27:17.106 13 1:52.476 0:16.436 1:55.708 1 51.336
12 52 Hansen, Nicolai DEN DMU Suzuki 25:29.348 12 1 lap 1 lap 1:59.909 3 49.538
13 28 Krestinov, Gert EST EMF Honda 25:30.206 12 1 lap 0:00.858 1:59.762 2 49.598
14 40 Neugebauer, Filip CZE DMSB Kawasaki 25:31.524 12 1 lap 0:01.318 2:00.114 5 49.453
15 49 Söderberg, Ludde FIN SML Honda 25:32.230 12 1 lap 0:00.706 2:00.731 4 49.2
16 61 Lindstrom, Kim SWE SVEMO Kawasaki 25:46.238 12 1 lap 0:14.008 2:00.723 4 49.204
17 67 Irt, Matevz SLO AMZS Suzuki 26:01.161 12 1 lap 0:14.923 1:59.818 1 49.575
18 7 Bopping, Lawson AUS MA Yamaha 26:09.013 12 1 lap 0:07.852 2:00.625 3 49.244
19 76 Jarva, Kim Oiva NOR NMF Honda 26:28.104 12 1 lap 0:19.091 2:05.438 7 47.354
20 37 Ogata, Makoto JPN MFJ Honda 26:43.483 12 1 lap 0:15.379 2:07.005 1 46.77
21 64 Ivanovs, Davis LAT LAMSF Kawasaki 26:47.551 12 1 lap 0:04.068 2:05.490 2 47.334
22 58 Schögler, Marco AUT OeAMTC KTM 26:49.024 12 1 lap 0:01.473 2:06.163 3 47.082
23 16 van der Westhuizen, Richard RSA MSA Yamaha 27:26.205 12 1 lap 0:37.181 2:07.663 2 46.529
24 22 Cros, Joan ESP RFME Suzuki 27:27.530 12 1 lap 0:01.325 2:10.759 1 45.427
25 97 Kouzis, Panagiotis GRE AMOTOE Honda 27:35.676 12 1 lap 0:08.146 2:09.352 2 45.921
26 79 Gentil, Gabriel BRA CBM Yamaha 25:32.385 11 2 laps 1 lap 2:10.879 1 45.385
27 91 Rukstela, Nerijus LTU LMSF Suzuki 25:37.987 11 2 laps 0:05.602 2:10.396 1 45.554
28 73 Badiali, Carlos VEN FMV Yamaha 25:58.723 11 2 laps 0:20.736 2:07.186 3 46.703
29 124 Szoke, Mark HUN MAMS Kawasaki 26:27.997 11 2 laps 0:29.274 2:08.650 2 46.172
30 94 Gudbergsson, Viktor ISL MSI Kawasaki 27:15.640 11 2 laps 0:47.643 2:08.661 2 46.168
31 70 Aponte, Gino PUR FMPR Yamaha 27:34.631 11 2 laps 0:18.991 2:09.428 2 45.894
32 100 Boonatee, Kritsada THA FMSCT Honda 25:46.805 9 4 laps 2 laps 2:24.427 1 41.128

Qualifying Heat MX2 – Classification
Pos Nr Rider Nat. Fed. Bike Time laps Diff. First Diff. Prev. Bestlaptime in lap Speed

1 20 Roczen, Ken GER DMSB KTM 24:24.394 12 0:00.000 0:00.000 1:53.700 1 52.243
2 14 van Horebeek, Jeremy BEL FMB KTM 24:34.231 12 0:09.837 0:09.837 1:56.542 2 50.969
3 2 Baggett, Blake USA AMA Kawasaki 24:44.451 12 0:20.057 0:10.220 1:57.970 10 50.352
4 5 Musquin, Marvin FRA AMA KTM 25:02.392 12 0:37.998 0:17.941 1:58.092 5 50.3
5 11 Nicholls, Jake GBR ACU KTM 25:08.546 12 0:44.152 0:06.154 1:58.952 1 49.936
6 26 Coldenhoff, Glenn NED KNMV KTM 25:21.626 12 0:57.232 0:13.080 1:58.136 4 50.281
7 44 Tonkov, Alexander RUS MFR Honda 25:22.831 12 0:58.437 0:01.205 1:59.854 4 49.56
8 8 Styke, Luke AUS MA Yamaha 25:30.093 12 1:05.699 0:07.262 2:00.674 5 49.224
9 29 Rätsep, Priit EST EMF KTM 25:32.609 12 1:08.215 0:02.516 2:00.726 2 49.202
10 77 Heibye, Even NOR NMF KTM 25:41.822 12 1:17.428 0:09.213 2:01.764 5 48.783
11 53 Olsen, Stefan Kjer DEN DMU Suzuki 25:48.663 12 1:24.269 0:06.841 2:01.577 3 48.858
12 23 Butron, Jose ESP RFME KTM 25:56.372 12 1:31.978 0:07.709 2:02.962 4 48.308
13 65 Justs, Roberts LAT LAMSF Honda 25:57.217 12 1:32.823 0:00.845 2:02.585 5 48.456
14 56 Graeme, Irwin IRL ACU Yamaha 26:05.223 12 1:40.829 0:08.006 2:03.295 4 48.177
15 62 Olsson, Karl SWE SVEMO Honda 26:06.335 12 1:41.941 0:01.112 2:02.328 4 48.558
16 71 Osborne, Zachary PUR ACU Yamaha 26:25.762 12 2:01.368 0:19.427 1:58.723 2 50.032
17 47 Lupino, Alessandro ITA FMI Husqvarna 26:28.530 12 2:04.136 0:02.768 2:04.996 5 47.522
18 68 Gajser, Tim SLO AMZS KTM 24:30.264 11 1 lap 1 lap 2:04.219 3 47.819
19 32 Alberto, Paulo POR FMP Honda 24:30.800 11 1 lap 0:00.536 2:05.684 4 47.261
20 35 Seewer, Jeremy SUI FMS Suzuki 24:37.951 11 1 lap 0:07.151 2:04.739 4 47.619
21 17 Terreblance, Shannon RSA MSA Kawasaki 24:39.692 11 1 lap 0:01.741 2:06.956 4 46.788
22 86 Lamont, Kayne NZL MNZ KTM 24:43.882 11 1 lap 0:04.190 2:06.164 1 47.082
23 50 Lehtinen, Teemu FIN SML Kawasaki 24:46.864 11 1 lap 0:02.982 2:07.404 2 46.623
24 95 Birgisson, Ingvi Bjorn ISL MSI KTM 26:09.040 11 1 lap 1:22.176 2:12.674 4 44.771
25 38 Takenaka, Junya JPN MFJ Kawasaki 26:14.240 11 1 lap 0:05.200 2:09.911 1 45.724
26 80 Silva Faria, Rafael BRA CBM Yamaha 26:26.219 11 1 lap 0:11.979 2:13.203 5 44.594
27 92 Inda, Matas LTU LMSF Kawasaki 27:33.821 11 1 lap 1:07.602 2:13.143 4 44.614
28 41 Spicak, Milan CZE ACCR Kawasaki 24:36.698 10 2 laps 1 lap 2:14.495 3 44.165
29 59 Neurauter, Lukas AUT OeAMTC KTM 24:43.232 10 2 laps 0:06.534 2:14.149 4 44.279
30 98 Kotoletas, Dimitris GRE AMOTOE Yamaha 25:00.797 10 2 laps 0:17.565 2:19.344 2 42.628
31 125 Hugyecz, Erik HUN MAMS Yamaha 25:39.952 10 2 laps 0:39.155 2:06.874 5 46.818
32 101 Thangthong, Trakarn THA FMSCT Yamaha 26:07.580 10 2 laps 0:27.628 2:15.704 1 43.772
33 74 Rodriguez, Hector VEN FMV Yamaha 13:43.343 6 6 laps 4 laps 2:03.999 1 47.904

« Prenant le départ de la manche Open sans réel enjeu puisque ses équipiers avaient assuré cette qualification, Xavier Boog entrait en tête dans le premier virage, ressortant en troisième position après avoir été un poil trop prudent. Sur une piste bien détruite après trois séances d’essais et deux courses, Xavier allait se faire désarçonner et se retrouvait courant à côté de sa moto, comme Mamola le fit en vitesse il y a quelques années ! Le temps de remonter en selle Xavier pointait huitième, mais après quelques tours la boucle arrière du cadre touchée dans la chute lâchait et l’obligeait à abandonner. »

(Source FFM)

Qualifying Heat Open – Classification
Pos Nr Rider Nat. Fed. Bike Time laps Diff. First Diff. Prev. Bestlaptime in lap Speed

1 27 Herlings, Jeffrey NED KNMV KTM 24:23.539 12 0:00.000 0:00.000 1:52.712 2 52.701
2 15 de Dycker, Ken BEL FMB KTM 24:25.563 12 0:02.024 0:02.024 1:55.419 1 51.465
3 30 Leok, Tanel EST EMF Suzuki 24:52.400 12 0:28.861 0:26.837 1:57.722 4 50.458
4 12 Anstie, Max GBR AMA Honda 25:09.897 12 0:46.358 0:17.497 1:55.278 1 51.528
5 48 Guarneri, Davide ITA FMI KTM 25:35.424 12 1:11.885 0:25.527 2:00.931 3 49.119
6 9 Waters, Todd AUS MA Suzuki 25:47.437 12 1:23.898 0:12.013 2:00.386 1 49.341
7 21 Schiffer, Marcus GER DMSB Suzuki 25:59.737 12 1:36.198 0:12.300 2:00.557 4 49.271
8 36 Guillod, Valentin SUI FMS KTM 26:33.792 12 2:10.253 0:34.055 2:04.095 4 47.867
9 33 Correia, Luis POR FMP Yamaha 26:34.704 12 2:11.165 0:00.912 2:05.170 4 47.455
10 63 Bengtsson, Filip SWE SVEMO KTM 24:30.108 11 1 lap 1 lap 2:06.276 6 47.04
11 51 Koskela, Niko FIN SML Kawasaki 24:31.614 11 1 lap 0:01.506 2:06.844 3 46.829
12 54 Lynggaard, Kasper DEN DMU Kawasaki 24:34.447 11 1 lap 0:02.833 2:06.719 4 46.875
13 69 Gercar, Klemen SLO AMZS Honda 24:55.220 11 1 lap 0:20.773 2:08.465 1 46.238
14 66 Freibergs, Lauris LAT LAMSF Honda 25:17.428 11 1 lap 0:22.208 2:10.269 2 45.598
15 45 Mikhaylov, Evgeny RUS MFR Suzuki 25:20.135 11 1 lap 0:02.707 2:10.816 6 45.407
16 60 Walkner, Matthias AUT OeAMTC KTM 25:22.151 11 1 lap 0:02.016 2:11.576 2 45.145
17 81 Müller, Marcal BRA CBM Yamaha 25:37.550 11 1 lap 0:15.399 2:11.424 1 45.197
18 42 Michek, Martin CZE ACCR KTM 25:41.334 11 1 lap 0:03.784 2:13.691 4 44.431
19 57 Edmonds, Stuart IRL MCUI Suzuki 25:44.546 11 1 lap 0:03.212 2:11.712 3 45.098
20 93 Bucas, Vytautas LTU LMSF Honda 25:44.795 11 1 lap 0:00.249 2:11.333 3 45.229
21 24 Lozano, Alvaro ESP RFME Honda 25:53.321 11 1 lap 0:08.526 2:08.415 2 46.256
22 87 Cooper, Cody NZL MNZ Suzuki 25:58.653 11 1 lap 0:05.332 2:05.930 6 47.169
23 39 Kojima, Yohei JPN MFJ Suzuki 26:00.476 11 1 lap 0:01.823 2:08.695 5 46.156
24 78 Klingsheim, Magne NOR NMF KTM 26:00.799 11 1 lap 0:00.323 2:09.776 4 45.771
25 72 Chisholm, Kyle PUR AMA Kawasaki 26:09.604 11 1 lap 0:08.805 2:07.765 4 46.492
26 75 Martin, Humberto VEN FMV Honda 26:44.961 11 1 lap 0:35.357 2:14.541 2 44.15
27 96 Sveinsson, Solvi Borgar ISL MSI Honda 25:28.236 10 2 laps 1 lap 2:17.783 3 43.111
28 99 Lliopoulos, George GRE AMOTOE KTM 26:17.493 10 2 laps 0:49.257 2:26.382 1 40.579
29 102 Romphan, Chaiyan THA FMSCT Yamaha 24:57.792 9 3 laps 1 lap 2:32.449 2 38.964
30 6 Boog, Xavier FRA FFM Kawasaki 9:02.979 4 8 laps 5 laps 2:03.776 3 47.99
31 18 Bradshaw, Neville RSA MSA Honda 7:29.999 3 9 laps 1 lap 2:12.435 2 44.852
32 126 Nemeth, Kornel HUN MAMS KTM 2:56.045 1 11 laps 2 laps 2:08.170 1 46.345
999 3 Barcia, Justin USA AMA Honda 25:45.588 12 1:22.049 -11 laps 1:54.242 1 51.995

Nations Qualification
Pos Country Points Race Nr Name Fed. Bike Class
Countries admitted to the Motocross of Nations races

1 Germany 3
1 20 ROCZEN, Ken DMSB KTM MX2
2 19 NAGL, Maximilian DMSB KTM MX1
(7) 21 SCHIFFER, Marcus DMSB Suzuki Open

2 Belgium 4
2 15 DE DYCKER, Ken FMB KTM Open
2 14 VAN HOREBEEK, Jeremy FMB KTM MX2
(3) 13 DESALLE, Clement FMB Suzuki MX1

3 Italy 6
1 46 CAIROLI, Antonio FMI KTM MX1
5 48 GUARNERI, Davide FMI KTM Open
(17) 47 LUPINO, Alessandro FMI Husqvarna MX2

4 The Netherlands 7
1 27 HERLINGS, Jeffrey KNMV KTM Open
6 26 COLDENHOFF, Glenn KNMV KTM MX2
(7) 25 DE REUVER, Marc KNMV Kawasaki MX1

5 France 8
4 4 PAULIN, Gautier MCM Kawasaki MX1
4 5 MUSQUIN, Marvin AMA KTM MX2
(30) 6 BOOG, Xavier FFM Kawasaki Open

6 USA 9
3 2 BAGGETT, Blake AMA Kawasaki MX2
6 1 DUNGEY, Ryan AMA KTM MX1
(0) 3 BARCIA, Justin AMA Honda Open

7 Great Britain 9
4 12 ANSTIE, Max AMA Honda Open
5 11 NICHOLLS, Jake ACU KTM MX2
(10) 10 SEARLE, Tommy ACU Kawasaki MX1

8 Estonia 12
3 30 LEOK, Tanel EMF Suzuki Open
9 29 RÄTSEP, Priit EMF KTM MX2
(13) 28 KRESTINOV, Gert EMF Honda MX1

9 Russia 12
5 43 BOBRYSHEV, Evgeny MFR Honda MX1
7 44 TONKOV, Alexander MFR Honda MX2
(15) 45 MIKHAYLOV, Evgeny MFR Suzuki Open

10 Australia 14
6 9 WATERS, Todd MA Suzuki Open
8 8 STYKE, Luke MA Yamaha MX2
(18) 7 BOPPING, Lawson MA Yamaha MX1

11 Portugal 17
8 31 GONCALVES, Rui FMP Honda MX1
9 33 CORREIA, Luis FMP Yamaha Open
(19) 32 ALBERTO, Paulo FMP Honda MX2

12 Denmark 23
11 53 OLSEN, Stefan Kjer DMU Suzuki MX2
12 54 LYNGGAARD, Kasper DMU Kawasaki Open
(12) 52 HANSEN, Nicolai DMU Suzuki MX1

13 Sweden 25
10 63 BENGTSSON, Filip SVEMO KTM Open
15 62 OLSSON, Karl SVEMO Honda MX2
(16) 61 LINDSTROM, Kim SVEMO Kawasaki MX1

14 Ireland 25
11 55 BARR, Martin ACU Suzuki MX1
14 56 GRAEME, Irwin ACU Yamaha MX2
(19) 57 EDMONDS, Stuart MCUI Suzuki Open

15 Finland 26
11 51 KOSKELA, Niko SML Kawasaki Open
15 49 SÖDERBERG, Ludde SML Honda MX1
(23) 50 LEHTINEN, Teemu SML Kawasaki MX2

16 Latvia 27
13 65 JUSTS, Roberts LAMSF Honda MX2
14 66 FREIBERGS, Lauris LAMSF Honda Open
(21) 64 IVANOVS, Davis LAMSF Kawasaki MX1

17 Switzerland 28
8 36 GUILLOD, Valentin FMS KTM Open
20 35 SEEWER, Jeremy FMS Suzuki MX2

18 Norway 29
10 77 HEIBYE, Even NMF KTM MX2
19 76 JARVA, Kim Oiva NMF Honda MX1
(24) 78 KLINGSHEIM, Magne NMF KTM Open

19 Slovenia 30
13 69 GERCAR, Klemen AMZS Honda Open
17 67 IRT, Matevz AMZS Suzuki MX1
(18) 68 GAJSER, Tim AMZS KTM MX2
Countries admitted to the B-Final

20 New Zealand 31
9 85 COPPINS, Joshua MNZ Yamaha MX1
22 87 COOPER, Cody MNZ Suzuki Open
(22) 86 LAMONT, Kayne MNZ KTM MX2

21 Czech Republic 32
14 40 NEUGEBAUER, Filip DMSB Kawasaki MX1
18 42 MICHEK, Martin ACCR KTM Open
(28) 41 SPICAK, Milan ACCR Kawasaki MX2

22 Spain 33
12 23 BUTRON, Jose RFME KTM MX2
21 24 LOZANO, Alvaro RFME Honda Open
(24) 22 CROS, Joan RFME Suzuki MX1

23 Austria 38
16 60 WALKNER, Matthias OeAMTC KTM Open
22 58 SCHÖGLER, Marco OeAMTC KTM MX1
(29) 59 NEURAUTER, Lukas OeAMTC KTM MX2

24 Puerto Rico 41
16 71 OSBORNE, Zachary ACU Yamaha MX2
25 72 CHISHOLM, Kyle AMA Kawasaki Open
(31) 70 APONTE, Gino FMPR Yamaha MX1

25 Japan 43
20 37 OGATA, Makoto MFJ Honda MX1
23 39 KOJIMA, Yohei MFJ Suzuki Open
(25) 38 TAKENAKA, Junya MFJ Kawasaki MX2

26 Brazil 43
17 81 MÜLLER, Marcal CBM Yamaha Open
26 79 GENTIL, Gabriel CBM Yamaha MX1
(26) 80 SILVA FARIA, Rafael CBM Yamaha MX2

27 Rep. of South Africa 44
21 17 TERREBLANCE, Shannon MSA Kawasaki MX2
23 16 VAN DER WESTHUIZEN, Richard MSA Yamaha MX1
(31) 18 BRADSHAW, Neville MSA Honda Open

28 Lithuania 47
20 93 BUCAS, Vytautas LMSF Honda Open
27 91 RUKSTELA, Nerijus LMSF Suzuki MX1
(27) 92 INDA, Matas LMSF Kawasaki MX2

29 Iceland 51
24 95 BIRGISSON, Ingvi Bjorn MSI KTM MX2
27 96 SVEINSSON, Solvi Borgar MSI Honda Open
(30) 94 GUDBERGSSON, Viktor MSI Kawasaki MX1

30 Greece 53
25 97 KOUZIS, Panagiotis AMOTOE Honda MX1
28 99 LLIOPOULOS, George AMOTOE KTM Open
(30) 98 KOTOLETAS, Dimitris AMOTOE Yamaha MX2

31 Venezuela 54
26 75 MARTIN, Humberto FMV Honda Open
28 73 BADIALI, Carlos FMV Yamaha MX1
(33) 74 RODRIGUEZ, Hector FMV Yamaha MX2

32 Hungary 60
29 124 SZOKE, Mark MAMS Kawasaki MX1
31 125 HUGYECZ, Erik MAMS Yamaha MX2
(32) 126 NEMETH, Kornel MAMS KTM Open
Countries not qualified

33 Thailand 61
29 102 ROMPHAN, Chaiyan FMSCT Yamaha Open
32 100 BOONATEE, Kritsada FMSCT Honda MX1
(32) 101 THANGTHONG, Trakarn FMSCT Yamaha MX2

A voir aussi :

Le commentaires sont fermés.